createdAt,value
2019-05-12T00:04:15.384Z,101748.90
2019-05-12T00:09:18.982Z,101756.56
2019-05-12T00:14:22.542Z,101756.98
2019-05-12T00:19:28.343Z,101759.23
2019-05-12T00:24:32.771Z,101763.47
2019-05-12T00:29:37.817Z,101770.73
2019-05-12T00:34:41.372Z,101779.45
2019-05-12T00:39:47.902Z,101779.92
2019-05-12T00:44:51.419Z,101795.69
2019-05-12T00:49:54.860Z,101803.34
2019-05-12T00:54:58.631Z,101811.91
2019-05-12T01:00:02.356Z,101817.17
2019-05-12T01:05:08.591Z,101823.40
2019-05-12T01:10:12.661Z,101830.77
2019-05-12T01:15:17.824Z,101842.64
2019-05-12T01:20:21.448Z,101860.50
2019-05-12T01:25:24.868Z,101861.86
2019-05-12T01:30:28.706Z,101866.76
2019-05-12T01:35:32.243Z,101877.55
2019-05-12T01:40:35.763Z,101881.02
2019-05-12T01:45:39.177Z,101891.59
2019-05-12T01:50:42.600Z,101885.10
2019-05-12T01:55:48.341Z,101890.56
2019-05-12T02:00:51.166Z,101885.34
2019-05-12T02:05:57.939Z,101896.70
2019-05-12T02:11:19.450Z,101915.73
2019-05-12T02:16:22.970Z,101921.34
2019-05-12T02:21:28.077Z,101921.50
2019-05-12T02:26:31.626Z,101935.03
2019-05-12T02:31:35.054Z,101935.33
2019-05-12T02:36:38.615Z,101940.09
2019-05-12T02:41:44.700Z,101947.72
2019-05-12T02:46:47.280Z,101951.23
2019-05-12T02:51:50.800Z,101952.93
2019-05-12T02:56:57.899Z,101963.30
2019-05-12T03:02:05.089Z,101972.50
2019-05-12T03:07:07.648Z,101970.49
2019-05-12T03:12:14.239Z,101983.30
2019-05-12T03:17:16.445Z,101992.45
2019-05-12T03:22:19.949Z,102005.48
2019-05-12T03:27:25.705Z,102004.28
2019-05-12T03:32:28.901Z,102008.27
2019-05-12T03:37:35.190Z,102022.68
2019-05-12T03:42:37.493Z,102029.25
2019-05-12T03:47:45.484Z,102039.81
2019-05-12T03:52:47.991Z,102053.05
2019-05-12T03:57:51.441Z,102066.01
2019-05-12T04:02:55.624Z,102074.55
2019-05-12T04:07:59.970Z,102078.68
2019-05-12T04:13:04.586Z,102094.05
2019-05-12T04:18:08.354Z,102095.84
2019-05-12T04:23:14.981Z,102095.91
2019-05-12T04:28:16.987Z,102102.25
2019-05-12T04:33:20.422Z,102115.06
2019-05-12T04:38:24.872Z,102126.83
2019-05-12T04:43:30.256Z,102132.01
2019-05-12T04:48:35.815Z,102139.60
2019-05-12T04:53:38.901Z,102147.61
2019-05-12T04:58:45.026Z,102147.20
2019-05-12T05:03:47.642Z,102158.02
2019-05-12T05:08:54.396Z,102168.09
2019-05-12T05:13:57.901Z,102175.59
2019-05-12T05:19:03.643Z,102188.00
2019-05-12T05:24:07.192Z,102195.72
2019-05-12T05:29:10.692Z,102207.66
2019-05-12T05:34:14.874Z,102212.46
2019-05-12T05:39:19.168Z,102218.27
2019-05-12T05:44:24.163Z,102229.89
2019-05-12T05:49:27.624Z,102238.08
2019-05-12T05:54:35.590Z,102233.35
2019-05-12T05:59:37.021Z,102235.69
2019-05-12T06:04:45.488Z,102237.30
2019-05-12T06:09:46.272Z,102249.53
2019-05-12T06:14:55.228Z,102252.42
2019-05-12T06:19:54.901Z,102250.11
2019-05-12T06:24:58.992Z,102260.59
2019-05-12T06:30:06.315Z,102266.63
2019-05-12T06:35:09.663Z,102267.31
2019-05-12T06:40:14.113Z,102280.00
2019-05-12T06:45:17.844Z,102293.70
2019-05-12T06:50:23.598Z,102297.45
2019-05-12T06:55:28.543Z,102301.59
2019-05-12T07:00:32.622Z,102304.83
2019-05-12T07:05:38.545Z,102306.40
2019-05-12T07:10:44.325Z,102316.19
2019-05-12T07:15:47.245Z,102319.61
2019-05-12T07:20:50.746Z,102328.33
2019-05-12T07:25:54.997Z,102331.00
2019-05-12T07:30:58.945Z,102326.50
2019-05-12T07:36:06.284Z,102334.05
2019-05-12T07:41:11.107Z,102334.42
2019-05-12T07:46:17.258Z,102332.00
2019-05-12T07:51:24.210Z,102325.50
2019-05-12T07:56:32.901Z,102323.55
2019-05-12T08:01:43.893Z,102338.67
2019-05-12T08:06:42.240Z,102347.94
2019-05-12T08:11:45.420Z,102339.42
2019-05-12T08:16:48.843Z,102344.41
2019-05-12T08:21:55.263Z,102346.39
2019-05-12T08:27:03.126Z,102354.80
2019-05-12T08:32:04.003Z,102363.20
2019-05-12T08:37:07.607Z,102355.45
2019-05-12T08:42:11.296Z,102354.25
2019-05-12T08:47:15.311Z,102351.20
2019-05-12T08:52:18.704Z,102352.78
2019-05-12T08:57:24.094Z,102359.06
2019-05-12T09:02:27.330Z,102374.11
2019-05-12T09:07:35.839Z,102371.12
2019-05-12T09:12:36.396Z,102381.82
2019-05-12T09:17:49.216Z,102381.03
2019-05-12T09:22:52.816Z,102378.92
2019-05-12T09:27:54.328Z,102373.63
2019-05-12T09:32:58.075Z,102379.30
2019-05-12T09:38:03.685Z,102380.52
2019-05-12T09:43:10.830Z,102384.16
2019-05-12T09:48:24.540Z,102387.61
2019-05-12T09:53:27.595Z,102383.36
2019-05-12T09:58:31.089Z,102389.03
2019-05-12T10:03:38.410Z,102395.97
2019-05-12T10:08:39.927Z,102383.87
2019-05-12T10:13:44.934Z,102388.48
2019-05-12T10:18:51.197Z,102390.47
2019-05-12T10:24:00.189Z,102393.38
2019-05-12T10:29:13.359Z,102402.49
2019-05-12T10:34:17.963Z,102399.06
2019-05-12T10:39:24.335Z,102403.98
2019-05-12T10:44:30.029Z,102403.05
2019-05-12T10:49:33.776Z,102407.95
2019-05-12T10:54:39.434Z,102416.08
2019-05-12T10:59:45.159Z,102425.75
2019-05-12T11:04:47.723Z,102420.37
2019-05-12T11:09:51.150Z,102418.98
2019-05-12T11:14:54.648Z,102416.27
2019-05-12T11:19:58.074Z,102417.55
2019-05-12T11:25:04.099Z,102415.70
2019-05-12T11:30:07.409Z,102406.92
2019-05-12T11:35:11.149Z,102409.80
2019-05-12T11:40:14.723Z,102409.78
2019-05-12T11:45:19.142Z,102436.56
2019-05-12T11:50:22.686Z,102427.98
2019-05-12T11:55:29.873Z,102416.59
2019-05-12T12:00:33.650Z,102415.80
2019-05-12T12:05:38.352Z,102422.47
2019-05-12T12:10:42.245Z,102413.50
2019-05-12T12:15:45.646Z,102426.36
2019-05-12T12:20:55.101Z,102422.23
2019-05-12T12:25:55.925Z,102420.22
2019-05-12T12:31:01.906Z,102424.55
2019-05-12T12:36:07.611Z,102435.34
2019-05-12T12:41:13.104Z,102446.69
2019-05-12T12:46:21.390Z,102450.89
2019-05-12T12:51:26.156Z,102455.30
2019-05-12T12:56:30.399Z,102460.45
2019-05-12T13:01:35.738Z,102466.92
2019-05-12T13:06:39.631Z,102465.97
2019-05-12T13:11:44.500Z,102476.14
2019-05-12T13:16:49.317Z,102471.56
2019-05-12T13:21:53.753Z,102468.17
2019-05-12T13:26:57.496Z,102472.83
2019-05-12T13:32:03.197Z,102481.25
2019-05-12T13:37:09.439Z,102488.76
2019-05-12T13:42:13.328Z,102501.13
2019-05-12T13:47:18.010Z,102496.58
2019-05-12T13:52:26.345Z,102500.06
2019-05-12T13:57:28.430Z,102497.94
2019-05-12T14:02:33.614Z,102514.31
2019-05-12T14:07:37.048Z,102519.59
2019-05-12T14:12:40.733Z,102525.28
2019-05-12T14:17:44.161Z,102526.19
2019-05-12T14:22:47.869Z,102520.97
2019-05-12T14:27:53.549Z,102522.45
2019-05-12T14:32:59.176Z,102524.43
2019-05-12T14:38:03.818Z,102518.09
2019-05-12T14:43:10.469Z,102515.70
2019-05-12T14:48:13.692Z,102522.36
2019-05-12T14:53:17.385Z,102523.91
2019-05-12T14:58:21.423Z,102528.49
2019-05-12T15:03:26.042Z,102518.37
2019-05-12T15:08:36.217Z,102524.73
2019-05-12T15:13:34.793Z,102524.48
2019-05-12T15:18:39.455Z,102524.63
2019-05-12T15:23:44.243Z,102524.95
2019-05-12T15:28:47.811Z,102534.28
2019-05-12T15:33:51.391Z,102534.22
2019-05-12T15:38:58.737Z,102532.05
2019-05-12T15:44:00.096Z,102531.95
2019-05-12T15:49:03.575Z,102541.79
2019-05-12T15:54:11.667Z,102539.52
2019-05-12T15:59:14.616Z,102538.70
2019-05-12T16:04:17.329Z,102541.43
2019-05-12T16:09:20.929Z,102550.89
2019-05-12T16:14:24.423Z,102548.85
2019-05-12T16:19:27.868Z,102561.30
2019-05-12T16:24:31.466Z,102564.45
2019-05-12T16:29:38.999Z,102576.20
2019-05-12T16:34:44.888Z,102562.09
2019-05-12T16:39:47.525Z,102555.23
2019-05-12T16:44:56.118Z,102566.13
2019-05-12T16:49:56.229Z,102572.64
2019-05-12T16:54:59.716Z,102577.16
2019-05-12T17:00:07.007Z,102592.70
2019-05-12T17:05:15.698Z,102596.28
2019-05-12T17:10:16.964Z,102596.71
2019-05-12T17:15:20.573Z,102601.17
2019-05-12T17:20:23.993Z,102604.72
2019-05-12T17:25:27.502Z,102605.18
2019-05-12T17:30:30.910Z,102597.75
2019-05-12T17:35:35.169Z,102599.53
2019-05-12T17:40:39.083Z,102612.21
2019-05-12T17:45:44.290Z,102614.81
2019-05-12T17:50:50.456Z,102617.85
2019-05-12T17:55:53.989Z,102630.49
2019-05-12T18:00:58.953Z,102635.74
2019-05-12T18:06:04.092Z,102640.09
2019-05-12T18:11:11.431Z,102641.81
2019-05-12T18:16:20.465Z,102647.91
2019-05-12T18:21:21.817Z,102661.45
2019-05-12T18:26:24.697Z,102660.98
2019-05-12T18:31:28.180Z,102671.41
2019-05-12T18:36:34.071Z,102668.20
2019-05-12T18:41:38.424Z,102670.78
2019-05-12T18:46:45.035Z,102691.09
2019-05-12T18:51:49.257Z,102693.88
2019-05-12T18:57:02.105Z,102694.75
2019-05-12T19:02:03.461Z,102701.17
2019-05-12T19:07:04.943Z,102705.42
2019-05-12T19:12:16.205Z,102711.44
2019-05-12T19:17:14.689Z,102719.28
2019-05-12T19:22:18.295Z,102722.91
2019-05-12T19:27:23.942Z,102728.33
2019-05-12T19:32:28.341Z,102738.34
2019-05-12T19:37:33.666Z,102743.31
2019-05-12T19:42:37.299Z,102754.92
2019-05-12T19:47:40.737Z,102765.17
2019-05-12T19:52:44.228Z,102768.55
2019-05-12T19:57:50.105Z,102789.30
2019-05-12T20:02:53.797Z,102794.81
2019-05-12T20:07:57.392Z,102793.22
2019-05-12T20:13:00.838Z,102800.50
2019-05-12T20:18:04.467Z,102801.46
2019-05-12T20:23:07.895Z,102804.19
2019-05-12T20:28:13.854Z,102807.55
2019-05-12T20:33:16.644Z,102815.76
2019-05-12T20:38:27.124Z,102818.30
2019-05-12T20:43:32.459Z,102820.14
2019-05-12T20:48:31.447Z,102829.04
2019-05-12T20:53:36.682Z,102840.48
2019-05-12T20:58:43.709Z,102844.12
2019-05-12T21:03:50.752Z,102846.89
2019-05-12T21:08:53.473Z,102853.66
2019-05-12T21:13:55.881Z,102859.82
2019-05-12T21:19:09.972Z,102857.23
2019-05-12T21:24:06.708Z,102869.95
2019-05-12T21:29:10.153Z,102866.08
2019-05-12T21:34:21.299Z,102873.59
2019-05-12T21:39:18.834Z,102869.91
2019-05-12T21:44:24.413Z,102880.72
2019-05-12T21:49:27.421Z,102893.92
2019-05-12T21:54:35.941Z,102897.58
2019-05-12T21:59:39.607Z,102900.16
2019-05-12T22:04:42.684Z,102908.29
2019-05-12T22:09:48.153Z,102910.50
2019-05-12T22:14:54.175Z,102914.00
2019-05-12T22:19:56.814Z,102915.73
2019-05-12T22:25:00.271Z,102921.89
2019-05-12T22:30:05.163Z,102914.70
2019-05-12T22:35:13.311Z,102922.84
2019-05-12T22:40:19.085Z,102929.14
2019-05-12T22:45:19.664Z,102929.88
2019-05-12T22:50:27.186Z,102937.84
2019-05-12T22:55:32.557Z,102943.80
2019-05-12T23:00:34.332Z,102942.70
2019-05-12T23:05:37.936Z,102952.33
2019-05-12T23:10:51.344Z,102953.72
2019-05-12T23:15:49.364Z,102963.22
2019-05-12T23:20:53.997Z,102963.20
2019-05-12T23:26:00.317Z,102966.99
2019-05-12T23:31:04.130Z,102967.32
2019-05-12T23:36:09.557Z,102969.34
2019-05-12T23:41:13.527Z,102981.34
2019-05-12T23:46:17.168Z,102979.55
2019-05-12T23:51:20.601Z,102977.23
2019-05-12T23:56:24.137Z,102973.23
